Time;durP1;ratioP1;P1;durP2;ratioP2;P2;SDS_P1;SDS_P2;PMS_P1;PMS_P2;Temp;Humidity;BMP_temperature;BMP_pressure;BME280_temperature;BME280_humidity;BME280_pressure;Samples;Min_cycle;Max_cycle;Signal;HPM_P1;HPM_P2
2023/08/13 00:01:57;;;;;;;9.10;8.30;;;;;;;21.89;75.01;96528.22;5048491;28;20182;-70
2023/08/13 00:04:22;;;;;;;8.43;7.53;;;;;;;21.98;74.68;96535.44;5048548;28;20726;-70
2023/08/13 00:06:47;;;;;;;13.23;7.60;;;;;;;22.04;74.45;96532.25;5048571;28;20244;-70
2023/08/13 00:09:13;;;;;;;8.30;7.60;;;;;;;22.07;74.05;96539.97;5048478;28;20205;-70
2023/08/13 00:11:38;;;;;;;8.40;7.70;;;;;;;22.21;73.96;96524.59;5052590;28;20178;-69
2023/08/13 00:14:03;;;;;;;8.60;7.47;;;;;;;22.14;74.19;96521.56;5068430;28;20206;-70
2023/08/13 00:16:29;;;;;;;9.70;7.90;;;;;;;22.14;73.91;96530.44;5068502;28;20202;-69
2023/08/13 00:18:54;;;;;;;8.67;7.23;;;;;;;22.02;74.13;96528.84;5067886;28;20578;-69
2023/08/13 00:21:19;;;;;;;8.10;7.30;;;;;;;22.07;74.01;96536.47;5068248;28;20166;-69
2023/08/13 00:23:45;;;;;;;9.43;8.40;;;;;;;22.06;74.21;96538.25;5068503;28;20168;-70
2023/08/13 00:26:10;;;;;;;8.57;7.73;;;;;;;21.97;74.35;96537.28;5068329;28;20231;-70
2023/08/13 00:28:36;;;;;;;10.53;7.13;;;;;;;22.03;74.15;96535.88;5068319;28;20198;-69
2023/08/13 00:31:01;;;;;;;7.63;6.83;;;;;;;22.05;73.95;96538.41;5067849;28;20170;-70
2023/08/13 00:33:26;;;;;;;8.50;7.63;;;;;;;22.03;74.10;96541.22;5068176;28;20166;-70
2023/08/13 00:35:52;;;;;;;17.60;8.00;;;;;;;22.14;73.65;96535.78;5068009;28;20190;-70
2023/08/13 00:38:17;;;;;;;8.27;7.57;;;;;;;22.27;73.05;96535.56;5068015;28;20218;-70
2023/08/13 00:40:43;;;;;;;9.00;6.97;;;;;;;22.34;72.59;96530.50;5068874;28;20217;-70
2023/08/13 00:43:08;;;;;;;9.80;8.07;;;;;;;22.22;73.16;96534.28;5069440;28;20177;-70
2023/08/13 00:45:35;;;;;;;12.53;8.00;;;;;;;22.25;72.93;96528.66;5069847;28;20178;-70
2023/08/13 00:48:01;;;;;;;13.70;8.23;;;;;;;22.21;73.03;96522.75;5069178;28;20186;-70
2023/08/13 00:50:28;;;;;;;7.57;6.87;;;;;;;22.21;73.19;96525.44;5071091;28;20458;-69
2023/08/13 00:52:53;;;;;;;10.27;8.47;;;;;;;22.02;73.82;96528.84;5068839;28;20182;-70
2023/08/13 00:55:19;;;;;;;9.97;8.77;;;;;;;21.92;74.13;96525.28;5069002;28;20412;-71
2023/08/13 00:57:45;;;;;;;7.07;6.47;;;;;;;21.88;74.42;96522.03;5068705;28;20170;-70
2023/08/13 01:00:11;;;;;;;9.87;8.27;;;;;;;21.93;74.22;96537.66;5068145;28;20174;-71
2023/08/13 01:02:38;;;;;;;12.83;8.60;;;;;;;21.83;74.55;96534.09;5068498;28;20986;-71
2023/08/13 01:05:05;;;;;;;8.37;7.57;;;;;;;21.76;74.90;96531.13;5068310;28;20438;-70
2023/08/13 01:07:36;;;;;;;8.73;7.80;;;;;;;21.83;74.32;96532.28;5067792;28;20412;-70
2023/08/13 01:10:36;;;;;;;13.47;7.90;;;;;;;21.80;74.33;96539.72;5067329;28;20412;-70
2023/08/13 01:13:10;;;;;;;8.67;7.73;;;;;;;21.89;73.96;96542.41;5051786;28;20417;-70
2023/08/13 01:15:41;;;;;;;9.70;7.30;;;;;;;21.87;74.00;96538.19;5047384;28;20460;-70
2023/08/13 01:18:07;;;;;;;9.00;7.47;;;;;;;21.70;74.88;96526.31;5047085;28;21106;-69
2023/08/13 01:20:36;;;;;;;8.37;7.10;;;;;;;21.61;75.43;96530.63;5046938;28;20420;-70
2023/08/13 01:23:02;;;;;;;12.90;7.87;;;;;;;21.67;75.07;96538.09;5047297;28;20178;-70
2023/08/13 01:25:28;;;;;;;11.37;8.10;;;;;;;21.49;75.58;96539.69;5047688;28;20405;-70
2023/08/13 01:28:27;;;;;;;8.77;7.83;;;;;;;21.65;74.95;96532.06;5047465;28;20191;-70
2023/08/13 01:30:56;;;;;;;7.83;7.13;;;;;;;21.81;74.13;96531.56;5046946;28;20435;-70
2023/08/13 01:33:27;;;;;;;9.60;8.80;;;;;;;21.81;74.08;96528.91;5047060;28;20776;-69
2023/08/13 01:35:58;;;;;;;7.77;6.97;;;;;;;21.83;73.72;96528.75;5047223;28;20858;-70
2023/08/13 01:38:25;;;;;;;7.70;7.10;;;;;;;21.79;73.79;96530.84;5047209;28;20843;-70
2023/08/13 01:40:51;;;;;;;8.40;7.13;;;;;;;21.80;73.66;96524.53;5047217;28;20471;-70
2023/08/13 01:43:17;;;;;;;7.30;6.63;;;;;;;21.77;73.73;96524.78;5047120;28;20433;-70
2023/08/13 01:45:43;;;;;;;8.93;8.03;;;;;;;21.69;74.05;96524.63;5047490;28;20409;-70
2023/08/13 01:48:08;;;;;;;8.13;7.00;;;;;;;21.68;74.21;96520.25;5047149;28;20425;-70
2023/08/13 01:50:36;;;;;;;8.60;7.90;;;;;;;21.73;73.95;96518.03;5046756;28;20670;-69
2023/08/13 01:53:02;;;;;;;8.23;7.50;;;;;;;21.67;74.25;96526.59;5047338;28;20562;-70
2023/08/13 01:55:27;;;;;;;8.37;7.57;;;;;;;21.35;75.58;96528.34;5046802;28;20532;-70
2023/08/13 01:57:52;;;;;;;8.63;7.93;;;;;;;21.33;75.58;96519.63;5046804;28;20278;-70
2023/08/13 02:00:18;;;;;;;8.73;7.83;;;;;;;21.04;76.35;96516.72;5046689;28;20765;-71
2023/08/13 02:02:43;;;;;;;9.43;8.53;;;;;;;20.87;77.24;96510.16;5046872;28;20541;-70
2023/08/13 02:05:08;;;;;;;9.30;8.40;;;;;;;20.80;77.82;96508.13;5046683;28;20262;-71
2023/08/13 02:07:34;;;;;;;11.97;7.53;;;;;;;21.18;75.96;96515.56;5046280;28;20182;-70
2023/08/13 02:10:00;;;;;;;8.00;7.10;;;;;;;21.30;75.46;96516.34;5046238;28;20624;-69
2023/08/13 02:12:25;;;;;;;9.90;8.20;;;;;;;21.44;74.70;96517.88;5056689;28;20198;-69
2023/08/13 02:14:51;;;;;;;12.10;7.90;;;;;;;21.40;74.67;96522.63;5066494;28;20178;-70
2023/08/13 02:17:16;;;;;;;10.60;7.97;;;;;;;21.46;74.33;96519.44;5066502;28;20287;-70
2023/08/13 02:19:41;;;;;;;12.40;8.00;;;;;;;21.48;74.21;96519.31;5066062;28;20196;-70
2023/08/13 02:22:07;;;;;;;8.87;8.07;;;;;;;21.49;73.68;96521.84;5072318;28;20166;-71
2023/08/13 02:24:33;;;;;;;8.37;7.50;;;;;;;21.44;74.45;96518.72;5080311;28;20204;-70
2023/08/13 02:26:59;;;;;;;10.77;8.07;;;;;;;21.42;73.88;96519.84;5077098;28;20200;-69
2023/08/13 02:29:24;;;;;;;8.30;7.50;;;;;;;21.26;74.46;96514.91;5074554;28;20193;-70
2023/08/13 02:31:50;;;;;;;16.13;8.00;;;;;;;21.31;74.18;96508.22;5070895;28;20177;-70
2023/08/13 02:34:15;;;;;;;14.73;8.50;;;;;;;21.33;74.19;96516.97;5067734;28;20254;-70
2023/08/13 02:36:41;;;;;;;9.23;8.43;;;;;;;21.21;74.63;96506.47;5066655;28;20201;-70
2023/08/13 02:39:06;;;;;;;8.50;7.70;;;;;;;21.21;74.58;96504.63;5055871;28;20856;-70
2023/08/13 02:41:32;;;;;;;9.63;8.73;;;;;;;21.17;74.42;96503.22;5044945;28;20313;-69
2023/08/13 02:43:57;;;;;;;15.63;9.10;;;;;;;21.20;74.26;96500.28;5046466;28;20174;-69
2023/08/13 02:46:24;;;;;;;14.60;8.47;;;;;;;21.25;73.84;96503.41;5046249;28;20167;-70
2023/08/13 02:48:51;;;;;;;9.87;8.87;;;;;;;21.17;74.26;96499.72;5045989;28;20288;-70
2023/08/13 02:51:17;;;;;;;10.33;9.33;;;;;;;21.22;74.12;96506.34;5046114;28;20879;-70
2023/08/13 02:53:42;;;;;;;9.27;8.43;;;;;;;21.14;74.56;96491.00;5046020;28;20412;-70
2023/08/13 02:56:08;;;;;;;8.97;8.10;;;;;;;21.10;74.80;96494.03;5045816;28;20203;-70
2023/08/13 02:58:33;;;;;;;10.27;9.27;;;;;;;21.03;75.12;96498.22;5045642;28;20199;-70
2023/08/13 03:00:59;;;;;;;9.30;8.50;;;;;;;20.89;75.14;96492.19;5045488;28;20416;-70
2023/08/13 03:03:24;;;;;;;10.63;9.00;;;;;;;20.97;74.88;96499.56;5045750;28;20229;-69
2023/08/13 03:05:50;;;;;;;11.40;8.80;;;;;;;21.14;74.35;96495.44;5045827;28;20182;-70
2023/08/13 03:08:15;;;;;;;10.80;9.80;;;;;;;21.15;74.31;96484.66;5045800;28;20686;-70
2023/08/13 03:10:41;;;;;;;9.73;8.80;;;;;;;20.97;74.78;96488.03;5045655;28;20174;-70
2023/08/13 03:13:06;;;;;;;10.10;9.13;;;;;;;20.94;75.28;96484.66;5061646;28;20170;-70
2023/08/13 03:15:31;;;;;;;11.20;8.43;;;;;;;21.13;74.29;96488.44;5065698;28;20867;-70
2023/08/13 03:17:57;;;;;;;12.40;9.00;;;;;;;21.08;74.16;96479.97;5065712;28;20248;-70
2023/08/13 03:20:22;;;;;;;10.33;8.93;;;;;;;21.12;74.48;96482.25;5065715;28;20182;-70
2023/08/13 03:22:48;;;;;;;10.63;9.53;;;;;;;20.94;75.65;96483.81;5065555;28;20205;-70
2023/08/13 03:25:13;;;;;;;10.80;9.90;;;;;;;20.66;76.69;96488.78;5065664;28;20266;-70
2023/08/13 03:27:39;;;;;;;10.20;9.30;;;;;;;20.80;75.95;96492.97;5065583;28;20178;-70
2023/08/13 03:30:05;;;;;;;10.00;9.20;;;;;;;20.92;75.40;96491.94;5065312;28;20210;-70
2023/08/13 03:32:31;;;;;;;14.47;9.20;;;;;;;20.94;75.57;96481.97;5066458;28;20412;-70
2023/08/13 03:34:56;;;;;;;10.23;9.20;;;;;;;20.90;75.11;96487.72;5069321;28;20572;-70
2023/08/13 03:37:21;;;;;;;18.93;9.67;;;;;;;20.99;74.85;96480.75;5067617;28;20198;-70
2023/08/13 03:39:47;;;;;;;15.07;9.10;;;;;;;21.05;74.60;96481.09;5053188;28;20195;-70
2023/08/13 03:42:12;;;;;;;9.90;8.90;;;;;;;21.10;74.31;96478.03;5049144;28;20301;-71
2023/08/13 03:44:41;;;;;;;9.33;8.43;;;;;;;21.09;74.35;96484.31;5049005;28;20174;-70
2023/08/13 03:47:06;;;;;;;9.73;8.83;;;;;;;21.06;74.65;96477.44;5048868;28;20170;-69
2023/08/13 03:49:33;;;;;;;10.77;9.73;;;;;;;21.08;74.39;96478.16;5048335;28;20436;-69
2023/08/13 03:51:58;;;;;;;9.70;8.90;;;;;;;21.03;74.31;96485.72;5049033;28;20175;-69
2023/08/13 03:54:24;;;;;;;11.70;9.30;;;;;;;21.00;74.49;96491.31;5048880;28;20466;-69
2023/08/13 03:56:50;;;;;;;9.47;8.67;;;;;;;21.00;74.29;96495.78;5048928;28;20195;-70
2023/08/13 03:59:15;;;;;;;10.77;9.67;;;;;;;21.02;73.97;96488.50;5048221;28;20445;-70
2023/08/13 04:01:41;;;;;;;10.83;9.70;;;;;;;21.00;74.12;96483.31;5049084;28;20687;-70
2023/08/13 04:04:06;;;;;;;10.20;9.20;;;;;;;20.94;73.87;96498.00;5048801;28;20171;-70
2023/08/13 04:06:32;;;;;;;17.03;10.57;;;;;;;20.91;74.03;96495.59;5059748;28;20175;-70
2023/08/13 04:08:57;;;;;;;11.33;7.70;;;;;;;20.99;73.53;96492.28;5059444;28;20697;-70
2023/08/13 04:11:23;;;;;;;13.30;10.73;;;;;;;21.00;73.29;96495.78;5068370;28;20444;-70
2023/08/13 04:13:48;;;;;;;10.93;8.43;;;;;;;21.12;72.69;96492.94;5069912;28;20186;-70
2023/08/13 04:16:14;;;;;;;14.20;8.40;;;;;;;21.05;72.84;96491.75;5067906;28;20206;-70
2023/08/13 04:18:39;;;;;;;14.93;9.30;;;;;;;20.88;73.44;96498.53;5068231;28;20205;-69
2023/08/13 04:21:04;;;;;;;15.53;9.03;;;;;;;20.78;73.82;96497.59;5068107;28;20307;-70
2023/08/13 04:23:30;;;;;;;16.57;8.70;;;;;;;20.86;73.62;96508.47;5068644;28;20174;-70
2023/08/13 04:25:55;;;;;;;9.17;8.27;;;;;;;20.94;73.89;96499.81;5068583;28;20273;-69
2023/08/13 04:28:21;;;;;;;9.20;8.07;;;;;;;21.03;73.33;96504.38;5068706;28;20327;-69
2023/08/13 04:30:46;;;;;;;12.33;9.33;;;;;;;21.04;73.46;96506.06;5061937;28;20757;-71
2023/08/13 04:33:11;;;;;;;10.10;8.50;;;;;;;20.91;74.13;96508.94;5068353;28;20267;-70
2023/08/13 04:35:37;;;;;;;16.63;9.60;;;;;;;20.82;74.60;96503.53;5068079;28;20190;-70
2023/08/13 04:38:02;;;;;;;12.57;10.30;;;;;;;20.67;75.62;96503.81;5068022;28;20194;-70
2023/08/13 04:40:28;;;;;;;24.03;10.03;;;;;;;20.50;76.63;96501.66;5066442;28;20185;-69
2023/08/13 04:42:53;;;;;;;12.17;9.33;;;;;;;20.40;77.35;96504.22;5048057;28;20213;-69
2023/08/13 04:45:18;;;;;;;14.67;10.17;;;;;;;20.65;76.41;96492.44;5048219;28;20223;-70
2023/08/13 04:47:44;;;;;;;10.73;9.83;;;;;;;20.73;75.76;96483.78;5062479;28;20178;-71
2023/08/13 04:50:10;;;;;;;14.77;11.47;;;;;;;20.66;76.66;96483.44;5064304;28;20185;-70
2023/08/13 04:52:36;;;;;;;12.23;11.13;;;;;;;20.47;77.58;96489.44;5068054;28;20185;-70
2023/08/13 04:55:01;;;;;;;10.27;9.00;;;;;;;21.10;75.12;96494.03;5066218;28;20263;-71
2023/08/13 04:57:27;;;;;;;11.60;8.93;;;;;;;21.39;73.50;96488.88;5067756;28;20452;-71
2023/08/13 04:59:52;;;;;;;19.03;11.70;;;;;;;21.25;74.51;96492.72;5065287;28;20560;-70
2023/08/13 05:02:18;;;;;;;12.47;10.20;;;;;;;20.60;77.48;96486.63;5067754;28;20260;-70
2023/08/13 05:04:43;;;;;;;12.37;11.17;;;;;;;20.31;79.14;96486.31;5064970;28;20354;-70
2023/08/13 05:07:08;;;;;;;11.17;10.17;;;;;;;20.48;78.28;96483.13;5066768;28;20174;-71
2023/08/13 05:09:34;;;;;;;11.30;10.40;;;;;;;20.46;78.24;96481.56;5067281;28;20205;-70
2023/08/13 05:12:00;;;;;;;14.90;9.83;;;;;;;20.51;78.36;96487.38;5067334;28;20521;-71
2023/08/13 05:14:26;;;;;;;11.37;10.27;;;;;;;20.58;78.22;96477.09;5067916;28;20298;-69
2023/08/13 05:16:54;;;;;;;12.77;11.40;;;;;;;20.57;78.24;96475.38;5066213;28;20559;-70
2023/08/13 05:19:20;;;;;;;13.07;11.90;;;;;;;20.67;77.75;96477.16;5059236;28;20586;-71
2023/08/13 05:21:45;;;;;;;13.40;12.20;;;;;;;20.71;78.02;96475.06;5059307;28;20437;-69
2023/08/13 05:24:11;;;;;;;13.67;12.27;;;;;;;20.58;78.90;96475.25;5062412;28;20207;-69
2023/08/13 05:26:36;;;;;;;13.90;12.40;;;;;;;20.65;78.53;96481.78;5060379;28;20182;-72
2023/08/13 05:29:03;;;;;;;14.03;12.63;;;;;;;20.56;78.67;96479.03;5066807;28;20694;-72
2023/08/13 05:31:28;;;;;;;12.57;11.47;;;;;;;20.66;78.10;96479.94;5057184;28;20186;-68
2023/08/13 05:33:57;;;;;;;11.57;10.40;;;;;;;21.20;75.67;96481.59;5059993;28;20468;-69
2023/08/13 05:36:23;;;;;;;14.93;11.77;;;;;;;21.20;75.63;96484.25;5066782;28;20304;-70
2023/08/13 05:38:48;;;;;;;11.43;10.23;;;;;;;21.18;75.46;96472.03;5067077;28;20550;-69
2023/08/13 05:41:13;;;;;;;10.60;9.50;;;;;;;21.25;74.75;96468.69;5067100;28;20174;-70
2023/08/13 05:43:39;;;;;;;11.87;10.67;;;;;;;21.27;74.64;96489.94;5055944;28;20182;-70
2023/08/13 05:46:04;;;;;;;12.10;10.87;;;;;;;21.50;73.79;96477.31;5063530;28;20194;-69
2023/08/13 05:48:30;;;;;;;16.23;9.43;;;;;;;21.75;72.75;96484.84;5064026;28;20201;-70
2023/08/13 05:50:55;;;;;;;10.70;8.20;;;;;;;21.75;72.11;96489.34;5061618;28;20591;-70
2023/08/13 05:53:20;;;;;;;11.73;8.90;;;;;;;22.08;70.82;96490.88;5063660;28;20186;-70
2023/08/13 05:55:46;;;;;;;10.63;9.47;;;;;;;21.52;73.57;96491.34;5057399;28;20689;-69
2023/08/13 05:58:11;;;;;;;9.70;8.80;;;;;;;21.70;72.66;96494.25;5063494;28;20201;-69
2023/08/13 06:00:37;;;;;;;11.57;10.47;;;;;;;21.62;73.29;96494.94;5060763;28;20185;-69
2023/08/13 06:03:03;;;;;;;9.00;8.20;;;;;;;21.32;74.57;96509.06;5057562;28;20182;-69
2023/08/13 06:05:28;;;;;;;22.50;10.63;;;;;;;21.58;73.46;96520.22;5062829;28;20206;-69
2023/08/13 06:07:53;;;;;;;18.37;9.63;;;;;;;21.75;72.89;96511.56;5058069;28;20198;-69
2023/08/13 06:10:19;;;;;;;16.33;9.40;;;;;;;22.05;71.62;96509.03;5056076;28;20343;-69
2023/08/13 06:12:45;;;;;;;27.63;11.70;;;;;;;22.15;71.32;96518.75;5062691;28;20547;-68
2023/08/13 06:15:10;;;;;;;21.63;9.90;;;;;;;22.16;70.89;96509.75;5056571;28;20183;-70
2023/08/13 06:17:35;;;;;;;10.97;10.07;;;;;;;21.88;72.48;96502.50;5064056;28;20290;-70
2023/08/13 06:20:01;;;;;;;10.93;10.00;;;;;;;21.13;75.54;96502.63;5063590;28;20242;-70
2023/08/13 06:22:26;;;;;;;13.20;10.60;;;;;;;21.04;76.52;96499.88;5061461;28;20183;-69
2023/08/13 06:24:52;;;;;;;11.80;10.70;;;;;;;21.35;74.97;96492.78;5061984;28;20474;-69
2023/08/13 06:27:17;;;;;;;11.40;10.30;;;;;;;21.33;75.18;96500.06;5062692;28;20174;-68
2023/08/13 06:29:43;;;;;;;19.77;10.20;;;;;;;21.83;72.79;96502.03;5060251;28;20197;-69
2023/08/13 06:32:08;;;;;;;12.17;8.70;;;;;;;22.46;69.70;96497.31;5063126;28;20174;-72
2023/08/13 06:34:34;;;;;;;12.73;8.37;;;;;;;22.72;68.62;96497.63;5057263;28;20240;-70
2023/08/13 06:36:59;;;;;;;15.20;9.20;;;;;;;22.74;68.52;96492.97;5061334;28;20212;-70
2023/08/13 06:39:25;;;;;;;10.30;9.00;;;;;;;22.76;68.78;96506.22;5064647;28;20251;-69
2023/08/13 06:41:51;;;;;;;10.50;8.13;;;;;;;22.73;68.70;96517.22;5063768;28;20924;-69
2023/08/13 06:44:18;;;;;;;12.97;8.40;;;;;;;22.77;68.44;96522.16;5065404;28;20174;-69
2023/08/13 06:46:44;;;;;;;17.57;10.83;;;;;;;22.56;69.84;96529.41;5052991;28;20544;-70
2023/08/13 06:49:10;;;;;;;23.93;13.00;;;;;;;22.38;70.51;96529.25;5066577;28;20436;-69
2023/08/13 06:51:35;;;;;;;9.53;8.27;;;;;;;22.39;70.27;96514.91;5063363;28;20182;-69
2023/08/13 06:54:00;;;;;;;10.63;9.63;;;;;;;22.11;71.46;96505.78;5058695;28;20247;-70
2023/08/13 06:56:26;;;;;;;9.73;8.13;;;;;;;22.38;69.91;96511.38;5063664;28;20240;-70
2023/08/13 06:58:51;;;;;;;12.07;9.73;;;;;;;22.17;71.80;96519.47;5058388;28;20313;-67
2023/08/13 07:01:17;;;;;;;10.80;9.83;;;;;;;22.26;71.96;96514.31;5066015;28;20289;-69
2023/08/13 07:03:44;;;;;;;18.27;10.63;;;;;;;22.13;72.47;96504.66;5066318;28;20174;-69
2023/08/13 07:06:09;;;;;;;13.40;11.30;;;;;;;21.84;74.12;96509.94;5064009;28;20265;-70
2023/08/13 07:08:35;;;;;;;12.53;11.23;;;;;;;21.74;75.15;96517.91;5064022;28;20482;-72
2023/08/13 07:11:00;;;;;;;12.80;9.13;;;;;;;21.82;74.78;96513.72;5069240;28;20215;-69
2023/08/13 07:13:26;;;;;;;19.27;8.63;;;;;;;22.07;73.29;96520.44;5075417;28;20196;-70
2023/08/13 07:15:51;;;;;;;12.57;8.50;;;;;;;22.35;72.10;96519.69;5067888;28;20199;-70
2023/08/13 07:18:16;;;;;;;12.07;9.63;;;;;;;22.49;72.83;96521.13;5064572;28;20591;-70
2023/08/13 07:20:42;;;;;;;19.53;10.73;;;;;;;22.62;72.65;96527.03;5061684;28;20184;-69
2023/08/13 07:23:08;;;;;;;17.53;10.33;;;;;;;22.84;71.88;96519.72;5067489;28;20186;-70
2023/08/13 07:25:33;;;;;;;17.57;9.93;;;;;;;22.92;71.11;96513.69;5067052;28;20252;-70
2023/08/13 07:27:58;;;;;;;13.20;12.03;;;;;;;22.43;73.53;96510.97;5059866;28;20198;-70
2023/08/13 07:30:24;;;;;;;14.20;12.90;;;;;;;22.17;75.85;96508.78;5060559;28;20178;-69
2023/08/13 07:32:49;;;;;;;15.67;9.03;;;;;;;22.59;73.02;96527.34;5064104;28;20206;-70
2023/08/13 07:35:15;;;;;;;11.57;10.53;;;;;;;23.12;72.56;96522.59;5067763;28;20255;-69
2023/08/13 07:37:41;;;;;;;15.07;13.77;;;;;;;23.27;71.14;96513.16;5064330;28;20836;-68
2023/08/13 07:40:07;;;;;;;14.87;13.50;;;;;;;23.08;72.57;96510.47;5061876;28;20440;-68
2023/08/13 07:42:34;;;;;;;12.90;8.97;;;;;;;23.90;67.91;96507.19;5061800;28;20240;-68
2023/08/13 07:45:00;;;;;;;9.40;8.40;;;;;;;24.50;64.91;96510.31;5063875;28;20428;-69
2023/08/13 07:47:25;;;;;;;12.17;9.10;;;;;;;24.76;64.27;96509.56;5068978;28;20412;-70
2023/08/13 07:49:50;;;;;;;13.93;12.73;;;;;;;24.76;65.62;96509.56;5061806;28;20268;-70
2023/08/13 07:52:16;;;;;;;8.83;7.93;;;;;;;24.43;65.63;96508.34;5066837;28;20579;-69
2023/08/13 07:54:41;;;;;;;13.03;11.60;;;;;;;24.27;67.59;96504.47;5062043;28;20178;-69
2023/08/13 07:57:07;;;;;;;13.80;12.53;;;;;;;23.66;68.45;96499.66;5063572;28;20233;-70
2023/08/13 07:59:32;;;;;;;13.77;12.47;;;;;;;23.10;71.23;96498.63;5062989;28;20229;-70
2023/08/13 08:01:59;;;;;;;14.47;13.07;;;;;;;22.98;72.35;96497.94;5064765;28;20188;-70
2023/08/13 08:04:24;;;;;;;14.60;13.23;;;;;;;23.49;70.74;96497.72;5058965;28;20189;-71
2023/08/13 08:06:50;;;;;;;13.23;11.83;;;;;;;23.45;70.78;96499.84;5065965;28;20424;-69
2023/08/13 08:09:15;;;;;;;12.03;10.83;;;;;;;23.93;69.63;96506.06;5064419;28;20198;-70
2023/08/13 08:11:40;;;;;;;13.80;10.73;;;;;;;24.20;67.63;96510.59;5067777;28;20181;-71
2023/08/13 08:14:06;;;;;;;15.10;9.87;;;;;;;24.54;66.90;96510.84;5063181;28;20190;-70
2023/08/13 08:16:31;;;;;;;18.23;8.70;;;;;;;24.36;66.43;96499.22;5060008;28;20197;-70
2023/08/13 08:18:57;;;;;;;17.30;13.03;;;;;;;24.51;65.79;96495.88;5057268;28;20209;-71
2023/08/13 08:21:22;;;;;;;12.40;11.20;;;;;;;24.50;67.23;96501.44;5055115;28;20273;-69
2023/08/13 08:23:47;;;;;;;12.43;11.23;;;;;;;24.95;66.38;96497.00;5052740;28;20186;-68
2023/08/13 08:26:13;;;;;;;10.53;9.43;;;;;;;24.84;65.60;96481.97;5066036;28;20627;-70
2023/08/13 08:28:38;;;;;;;16.63;12.23;;;;;;;24.36;67.90;96489.34;5066346;28;20230;-70
2023/08/13 08:31:03;;;;;;;27.07;11.67;;;;;;;24.60;67.50;96493.31;5059356;28;21724;-70
2023/08/13 08:33:29;;;;;;;10.83;9.97;;;;;;;24.72;67.39;96494.75;5065162;28;20250;-69
2023/08/13 08:35:54;;;;;;;11.23;10.23;;;;;;;24.44;66.77;96496.63;5063611;28;20233;-70
2023/08/13 08:38:20;;;;;;;17.33;9.00;;;;;;;24.46;66.49;96491.94;5055025;28;20221;-73
2023/08/13 08:40:47;;;;;;;11.33;10.33;;;;;;;24.18;66.89;96478.56;5058485;28;20265;-72
2023/08/13 08:43:13;;;;;;;11.23;8.27;;;;;;;24.35;66.63;96489.47;5059947;28;20218;-71
2023/08/13 08:45:39;;;;;;;17.70;11.60;;;;;;;24.48;65.61;96493.50;5055625;28;21037;-71
2023/08/13 08:48:06;;;;;;;42.20;12.40;;;;;;;24.44;66.00;96489.41;5061408;28;20456;-71
2023/08/13 08:50:34;;;;;;;11.10;10.07;;;;;;;24.45;66.57;96490.25;5051722;28;20509;-72
2023/08/13 08:53:00;;;;;;;10.03;9.10;;;;;;;24.38;67.51;96486.47;5060367;28;21211;-72
2023/08/13 08:55:26;;;;;;;11.03;9.90;;;;;;;24.50;65.99;96477.28;5060746;28;20483;-71
2023/08/13 08:57:54;;;;;;;11.57;9.20;;;;;;;24.78;65.01;96477.19;5058370;28;20206;-72
2023/08/13 09:00:19;;;;;;;10.87;9.77;;;;;;;24.94;64.86;96480.03;5062578;28;20520;-70
2023/08/13 09:02:45;;;;;;;13.27;7.37;;;;;;;25.03;64.24;96478.25;5063841;28;20508;-72
2023/08/13 09:05:11;;;;;;;8.07;7.00;;;;;;;25.13;62.17;96466.44;5067269;28;20539;-71
2023/08/13 09:07:39;;;;;;;9.37;8.50;;;;;;;25.22;63.04;96477.25;5059586;28;20217;-72
2023/08/13 09:10:05;;;;;;;20.50;8.87;;;;;;;25.52;62.19;96458.00;5063341;28;20436;-70
2023/08/13 09:12:38;;;;;;;8.90;7.90;;;;;;;25.73;61.79;96451.41;5057698;28;20532;-70
2023/08/13 09:15:08;;;;;;;12.07;7.87;;;;;;;25.70;61.15;96432.88;5063383;28;20433;-73
2023/08/13 09:17:34;;;;;;;8.90;8.10;;;;;;;25.89;59.92;96438.06;5065076;28;20560;-73
2023/08/13 09:20:01;;;;;;;9.30;8.43;;;;;;;25.92;59.77;96448.47;5067679;28;20412;-70
2023/08/13 09:22:32;;;;;;;8.23;6.70;;;;;;;26.19;59.38;96443.88;5066873;28;20256;-69
2023/08/13 09:25:01;;;;;;;11.63;7.40;;;;;;;26.07;60.08;96442.47;5066865;28;20412;-69
2023/08/13 09:27:26;;;;;;;14.17;7.17;;;;;;;26.27;58.68;96440.34;5066965;28;20852;-71
2023/08/13 09:29:53;;;;;;;8.90;5.90;;;;;;;26.49;58.20;96430.81;5067082;28;20523;-71
2023/08/13 09:32:18;;;;;;;9.07;8.17;;;;;;;26.42;58.09;96433.34;5067492;28;20189;-72
2023/08/13 09:34:44;;;;;;;7.10;6.40;;;;;;;26.25;58.49;96431.63;5067794;28;20444;-70
2023/08/13 09:37:09;;;;;;;7.97;7.27;;;;;;;26.35;57.99;96430.44;5067609;28;20251;-72
2023/08/13 09:39:35;;;;;;;9.53;6.57;;;;;;;26.85;56.98;96427.84;5065527;28;20663;-71
2023/08/13 09:42:05;;;;;;;7.20;6.60;;;;;;;26.32;57.44;96432.66;5067373;28;20695;-72
2023/08/13 09:44:30;;;;;;;11.07;6.50;;;;;;;26.72;56.56;96428.38;5067534;28;20536;-70
2023/08/13 09:47:03;;;;;;;7.07;6.47;;;;;;;26.75;56.02;96430.72;5067406;28;20407;-72
2023/08/13 09:49:33;;;;;;;8.47;6.53;;;;;;;26.49;57.11;96433.50;5066991;28;20193;-71
2023/08/13 09:52:08;;;;;;;7.70;5.47;;;;;;;26.93;55.84;96422.44;5067154;28;20413;-71
2023/08/13 09:54:56;;;;;;;9.93;7.63;;;;;;;27.09;54.76;96435.09;5067137;28;20445;-71
2023/08/13 09:57:22;;;;;;;6.00;5.40;;;;;;;26.82;54.31;96429.88;5067008;28;21019;-71
2023/08/13 09:59:49;;;;;;;7.93;5.30;;;;;;;26.94;54.42;96414.22;5066624;28;20428;-72
2023/08/13 10:02:15;;;;;;;7.53;6.40;;;;;;;27.22;55.15;96417.41;5067241;28;20485;-71
2023/08/13 10:04:41;;;;;;;6.40;5.70;;;;;;;27.02;55.28;96418.75;5067896;28;20809;-72
2023/08/13 10:07:07;;;;;;;7.97;6.10;;;;;;;26.94;55.32;96416.91;5067972;28;20158;-70
2023/08/13 10:09:34;;;;;;;6.83;5.80;;;;;;;27.00;54.63;96420.78;5067374;28;20424;-70
2023/08/13 10:12:01;;;;;;;9.77;6.40;;;;;;;27.31;54.43;96420.09;5074365;28;20824;-70
2023/08/13 10:14:27;;;;;;;6.13;5.63;;;;;;;27.18;54.21;96418.72;5087556;28;20431;-72
2023/08/13 10:16:53;;;;;;;6.03;4.50;;;;;;;27.39;53.34;96420.09;5086874;28;20464;-70
2023/08/13 10:19:19;;;;;;;8.57;7.80;;;;;;;27.48;53.68;96413.66;5086694;28;20439;-71
2023/08/13 10:21:55;;;;;;;10.60;5.70;;;;;;;27.56;54.10;96410.09;5086907;28;20181;-71
2023/08/13 10:24:22;;;;;;;6.40;5.80;;;;;;;27.69;52.22;96398.78;5087018;28;20173;-72
2023/08/13 10:26:48;;;;;;;7.53;5.63;;;;;;;27.86;52.53;96403.13;5086851;28;20399;-71
2023/08/13 10:29:21;;;;;;;8.27;5.20;;;;;;;28.15;52.02;96393.53;5086796;28;20443;-71
2023/08/13 10:31:59;;;;;;;6.13;5.53;;;;;;;27.86;51.92;96397.72;5086982;28;20169;-70
2023/08/13 10:34:38;;;;;;;10.47;6.47;;;;;;;28.33;51.24;96391.41;5087005;28;20917;-71
2023/08/13 10:37:13;;;;;;;6.70;5.13;;;;;;;27.96;51.36;96390.25;5087121;28;20450;-71
2023/08/13 10:39:42;;;;;;;6.00;5.40;;;;;;;27.74;52.35;96394.53;5086741;28;20457;-72
2023/08/13 10:42:26;;;;;;;5.97;5.47;;;;;;;27.75;52.03;96398.91;5090977;28;21111;-71
2023/08/13 10:44:51;;;;;;;6.50;5.43;;;;;;;28.32;49.66;96387.00;5093406;28;20403;-71
2023/08/13 10:47:17;;;;;;;18.00;6.53;;;;;;;28.61;48.39;96382.81;5093463;28;20403;-70
2023/08/13 10:49:42;;;;;;;10.33;5.30;;;;;;;28.45;49.06;96386.44;5093313;28;20193;-70
2023/08/13 10:52:08;;;;;;;6.00;5.40;;;;;;;28.25;49.27;96375.25;5093389;28;20180;-71
2023/08/13 10:54:33;;;;;;;7.20;4.80;;;;;;;28.12;49.67;96362.34;5093431;28;20169;-71
2023/08/13 10:57:01;;;;;;;9.33;5.37;;;;;;;28.03;50.90;96380.44;5093199;28;20614;-71
2023/08/13 10:59:39;;;;;;;7.13;5.83;;;;;;;28.43;49.90;96369.56;5093028;28;20260;-69
2023/08/13 11:02:21;;;;;;;7.47;5.53;;;;;;;28.22;50.47;96373.75;5093294;28;20784;-70
2023/08/13 11:04:47;;;;;;;6.37;5.77;;;;;;;27.82;52.34;96369.38;5093332;28;20407;-71
2023/08/13 11:07:15;;;;;;;8.60;6.00;;;;;;;28.00;52.21;96363.78;5093374;28;20414;-71
2023/08/13 11:09:42;;;;;;;10.43;5.60;;;;;;;28.19;52.64;96366.03;5093223;28;20192;-70
2023/08/13 11:12:09;;;;;;;9.17;6.63;;;;;;;28.25;51.66;96368.03;5085380;28;20403;-72
2023/08/13 11:14:36;;;;;;;13.03;7.03;;;;;;;27.99;52.82;96362.94;5073716;28;20411;-71
2023/08/13 11:17:02;;;;;;;7.70;6.60;;;;;;;27.71;52.79;96367.06;5073124;28;20451;-71
2023/08/13 11:19:28;;;;;;;11.77;6.37;;;;;;;27.55;53.46;96371.53;5074206;28;20493;-71
2023/08/13 11:21:54;;;;;;;6.57;5.57;;;;;;;27.76;53.10;96367.41;5078740;28;20174;-71
2023/08/13 11:24:21;;;;;;;7.13;5.90;;;;;;;28.12;51.90;96356.13;5078685;28;20416;-71